Observation data for Post on 11/17/2019      Previous  Date  Next       Current Mesonet Observations  Soil Data  Daily Summary Page  Observations in Plain Language
KPT1 170600Z 20006KT 10/04 A2996 RMK A01 T00980038  RH  068%=      5-min Rain = 0
KPT1 170605Z 21005KT 10/04 A2996 RMK A01 T00970038  RH  068%=      5-min Rain = 0
KPT1 170610Z 21005KT 10/04 A2996 RMK A01 T00960038  RH  069%=      5-min Rain = 0
KPT1 170615Z 20004KT 10/04 A2996 RMK A01 T00950038  RH  069%=      5-min Rain = 0
KPT1 170620Z 19004KT 10/04 A2996 RMK A01 T00950038  RH  069%=      5-min Rain = 0
KPT1 170625Z 17002KT 09/04 A2996 RMK A01 T00920037  RH  069%=      5-min Rain = 0
KPT1 170630Z 20001KT 09/04 A2996 RMK A01 T00910037  RH  070%=      5-min Rain = 0
KPT1 170635Z 23001KT 09/04 A2997 RMK A01 T00910038  RH  071%=      5-min Rain = 0
KPT1 170640Z 21000KT 09/04 A2997 RMK A01 T00900038  RH  071%=      5-min Rain = 0
KPT1 170645Z 08000KT 09/04 A2997 RMK A01 T00900038  RH  071%=      5-min Rain = 0
KPT1 170650Z 04001KT 09/04 A2997 RMK A01 T00900037  RH  071%=      5-min Rain = 0
KPT1 170655Z 20001KT 09/04 A2997 RMK A01 T00880037  RH  072%=      5-min Rain = 0
KPT1 170700Z 23000KT 09/04 A2997 RMK A01 T00880038  RH  072%=      5-min Rain = 0
KPT1 170705Z 18001KT 09/04 A2997 RMK A01 T00860037  RH  073%=      5-min Rain = 0
KPT1 170710Z 16002KT 09/04 A2997 RMK A01 T00860038  RH  073%=      5-min Rain = 0
KPT1 170715Z 16001KT 09/04 A2997 RMK A01 T00850038  RH  074%=      5-min Rain = 0
KPT1 170720Z 19001KT 09/04 A2997 RMK A01 T00870039  RH  073%=      5-min Rain = 0
KPT1 170725Z 14001KT 09/04 A2997 RMK A01 T00890040  RH  072%=      5-min Rain = 0
KPT1 170730Z 15002KT 09/04 A2997 RMK A01 T00890038  RH  072%=      5-min Rain = 0
KPT1 170735Z 17002KT 09/04 A2996 RMK A01 T00910039  RH  071%=      5-min Rain = 0
KPT1 170740Z 18003KT 09/04 A2996 RMK A01 T00900037  RH  071%=      5-min Rain = 0
KPT1 170745Z 18003KT 09/04 A2996 RMK A01 T00910038  RH  071%=      5-min Rain = 0
KPT1 170750Z 19003KT 09/04 A2997 RMK A01 T00900036  RH  071%=      5-min Rain = 0
KPT1 170755Z 21002KT 09/04 A2997 RMK A01 T00880037  RH  072%=      5-min Rain = 0
KPT1 170800Z 23001KT 09/04 A2997 RMK A01 T00910039  RH  071%=      5-min Rain = 0
KPT1 170805Z 24001KT 09/04 A2997 RMK A01 T00880036  RH  071%=      5-min Rain = 0
KPT1 170810Z 27002KT 09/04 A2997 RMK A01 T00850037  RH  073%=      5-min Rain = 0
KPT1 170815Z 26003KT 08/04 A2996 RMK A01 T00820036  RH  074%=      5-min Rain = 0
KPT1 170820Z 24004KT 08/04 A2996 RMK A01 T00790035  RH  075%=      5-min Rain = 0
KPT1 170825Z 23005KT 08/04 A2996 RMK A01 T00780036  RH  076%=      5-min Rain = 0
KPT1 170830Z 25004KT 08/04 A2996 RMK A01 T00780038  RH  077%=      5-min Rain = 0
KPT1 170835Z 25003KT 08/04 A2996 RMK A01 T00790038  RH  077%=      5-min Rain = 0
KPT1 170840Z 25001KT 08/04 A2996 RMK A01 T00780038  RH  077%=      5-min Rain = 0
KPT1 170845Z 21002KT 08/04 A2996 RMK A01 T00770038  RH  078%=      5-min Rain = 0
KPT1 170850Z 21004KT 08/04 A2996 RMK A01 T00770038  RH  078%=      5-min Rain = 0
KPT1 170855Z 22005KT 07/04 A2996 RMK A01 T00720035  RH  079%=      5-min Rain = 0
KPT1 170900Z 23006KT 07/04 A2996 RMK A01 T00690035  RH  080%=      5-min Rain = 0
KPT1 170905Z 23005KT 07/04 A2996 RMK A01 T00710038  RH  081%=      5-min Rain = 0
KPT1 170910Z 26004KT 07/04 A2996 RMK A01 T00720039  RH  081%=      5-min Rain = 0
KPT1 170915Z 28004KT 07/04 A2997 RMK A01 T00680036  RH  081%=      5-min Rain = 0
KPT1 170920Z 27003KT 07/04 A2997 RMK A01 T00660036  RH  082%=      5-min Rain = 0
KPT1 170925Z 25002KT 07/04 A2997 RMK A01 T00650035  RH  083%=      5-min Rain = 0
KPT1 170930Z 25004KT 07/04 A2996 RMK A01 T00650036  RH  083%=      5-min Rain = 0
KPT1 170935Z 25003KT 06/04 A2996 RMK A01 T00640035  RH  083%=      5-min Rain = 0
KPT1 170940Z 24003KT 06/04 A2996 RMK A01 T00640036  RH  084%=      5-min Rain = 0
KPT1 170945Z 24002KT 06/04 A2997 RMK A01 T00630035  RH  084%=      5-min Rain = 0
KPT1 170950Z 26004KT 06/04 A2996 RMK A01 T00620035  RH  084%=      5-min Rain = 0
KPT1 170955Z 28004KT 06/03 A2997 RMK A01 T00590032  RH  085%=      5-min Rain = 0
KPT1 171000Z 29003KT 06/03 A2997 RMK A01 T00570032  RH  086%=      5-min Rain = 0
KPT1 171005Z 30002KT 05/03 A2997 RMK A01 T00540030  RH  086%=      5-min Rain = 0
KPT1 171010Z 30002KT 05/03 A2997 RMK A01 T00520031  RH  087%=      5-min Rain = 0
KPT1 171015Z 31003KT 06/03 A2997 RMK A01 T00550034  RH  088%=      5-min Rain = 0
KPT1 171020Z 31004KT 05/03 A2998 RMK A01 T00510030  RH  088%=      5-min Rain = 0
KPT1 171025Z 31004KT 05/03 A2998 RMK A01 T00490029  RH  088%=      5-min Rain = 0
KPT1 171030Z 32005KT 05/03 A2998 RMK A01 T00480029  RH  089%=      5-min Rain = 0
KPT1 171035Z 32006KT 04/03 A2998 RMK A01 T00440025  RH  089%=      5-min Rain = 0
KPT1 171040Z 33007KT 04/02 A2999 RMK A01 T00400023  RH  090%=      5-min Rain = 0
KPT1 171045Z 32008KT 04/03 A2999 RMK A01 T00420025  RH  090%=      5-min Rain = 0
KPT1 171050Z 32010G15KT 05/03 A2999 RMK A01 T00470031  RH  091%=      5-min Rain = 0
KPT1 171055Z 33013G19KT 05/04 A30 RMK A01 T00530036  RH  090%=      5-min Rain = 0
KPT1 171100Z 34015KT 06/04 A3001 RMK A01 T00620036  RH  085%=      5-min Rain = 0
KPT1 171105Z 34014KT 07/03 A3001 RMK A01 T00650032  RH  081%=      5-min Rain = 0
KPT1 171110Z 34012G17KT 07/03 A3001 RMK A01 T00650031  RH  080%=      5-min Rain = 0
KPT1 171115Z 35015KT 07/03 A3002 RMK A01 T00700030  RH  077%=      5-min Rain = 0
KPT1 171120Z 35013G19KT 07/03 A3002 RMK A01 T00710028  RH  075%=      5-min Rain = 0
KPT1 171125Z 35013G19KT 07/03 A3002 RMK A01 T00730026  RH  073%=      5-min Rain = 0
KPT1 171130Z 35013KT 08/03 A3002 RMK A01 T00760025  RH  071%=      5-min Rain = 0
KPT1 171135Z 35012G17KT 08/02 A3002 RMK A01 T00760023  RH  070%=      5-min Rain = 0
KPT1 171140Z 36011KT 08/02 A3003 RMK A01 T00760021  RH  069%=      5-min Rain = 0
KPT1 171145Z 00011KT 08/02 A3003 RMK A01 T00760020  RH  068%=      5-min Rain = 0
KPT1 171150Z 00011KT 08/02 A3003 RMK A01 T00770018  RH  067%=      5-min Rain = 0
KPT1 171155Z 35010KT 08/02 A3004 RMK A01 T00760016  RH  067%=      5-min Rain = 0
KPT1 171200Z 36010KT 08/02 A3004 RMK A01 T00770015  RH  066%=      5-min Rain = 0
KPT1 171205Z 36010KT 08/01 A3004 RMK A01 T00770013  RH  065%=      5-min Rain = 0
KPT1 171210Z 35009KT 08/01 A3004 RMK A01 T00770012  RH  064%=      5-min Rain = 0
KPT1 171215Z 36010KT 08/01 A3005 RMK A01 T00780010  RH  063%=      5-min Rain = 0
KPT1 171220Z 36010KT 08/01 A3005 RMK A01 T00800008  RH  062%=      5-min Rain = 0
KPT1 171225Z 36011KT 08/01 A3005 RMK A01 T00820007  RH  060%=      5-min Rain = 0
KPT1 171230Z 35010KT 08/01 A3005 RMK A01 T00830006  RH  059%=      5-min Rain = 0
KPT1 171235Z 36011KT 08/01 A3006 RMK A01 T00830005  RH  058%=      5-min Rain = 0
KPT1 171240Z 36010KT 08/00 A3006 RMK A01 T00840004  RH  058%=      5-min Rain = 0
KPT1 171245Z 36009KT 08/00 A3006 RMK A01 T00830003  RH  058%=      5-min Rain = 0
KPT1 171250Z 00010KT 09/00 A3006 RMK A01 T00850002  RH  057%=      5-min Rain = 0
KPT1 171255Z 36010KT 08/00 A3007 RMK A01 T00840002  RH  057%=      5-min Rain = 0
KPT1 171300Z 00010KT 08/00 A3007 RMK A01 T00820002  RH  058%=      5-min Rain = 0
KPT1 171305Z 00012KT 09/00 A3008 RMK A01 T00850001  RH  056%=      5-min Rain = 0
KPT1 171310Z 36012KT 09/00 A3008 RMK A01 T00860001  RH  056%=      5-min Rain = 0
KPT1 171315Z 35011KT 09/00 A3009 RMK A01 T00850001  RH  056%=      5-min Rain = 0
KPT1 171320Z 35011G16KT 09/00 A3009 RMK A01 T00850001  RH  056%=      5-min Rain = 0
KPT1 171325Z 35012KT 09/00 A301 RMK A01 T00850002  RH  057%=      5-min Rain = 0
KPT1 171330Z 35013KT 09/00 A301 RMK A01 T00860002  RH  056%=      5-min Rain = 0
KPT1 171335Z 35012G17KT 09/00 A301 RMK A01 T00860003  RH  056%=      5-min Rain = 0
KPT1 171340Z 35013G18KT 09/00 A301 RMK A01 T00870003  RH  056%=      5-min Rain = 0
KPT1 171345Z 35013KT 09/00 A3011 RMK A01 T00890003  RH  056%=      5-min Rain = 0
KPT1 171350Z 35013KT 09/00 A3011 RMK A01 T00900004  RH  055%=      5-min Rain = 0
KPT1 171355Z 35013G19KT 09/01 A3011 RMK A01 T00910005  RH  055%=      5-min Rain = 0
KPT1 171400Z 35014KT 09/01 A3011 RMK A01 T00920005  RH  055%=      5-min Rain = 0
KPT1 171405Z 35013G18KT 09/01 A3012 RMK A01 T00930005  RH  055%=      5-min Rain = 0
KPT1 171410Z 36014G19KT 09/01 A3012 RMK A01 T00940006  RH  055%=      5-min Rain = 0
KPT1 171415Z 00014G19KT 10/01 A3012 RMK A01 T00960006  RH  054%=      5-min Rain = 0
KPT1 171420Z 36015G21KT 10/01 A3013 RMK A01 T00970006  RH  054%=      5-min Rain = 0
KPT1 171425Z 36015KT 10/01 A3013 RMK A01 T00990007  RH  054%=      5-min Rain = 0
KPT1 171430Z 36014G19KT 10/01 A3013 RMK A01 T01000008  RH  053%=      5-min Rain = 0
KPT1 171435Z 36015G20KT 10/01 A3013 RMK A01 T01020008  RH  053%=      5-min Rain = 0
KPT1 171440Z 00014G20KT 10/01 A3013 RMK A01 T01030008  RH  052%=      5-min Rain = 0
KPT1 171445Z 00013G18KT 11/01 A3014 RMK A01 T01050009  RH  052%=      5-min Rain = 0
KPT1 171450Z 00014G20KT 11/01 A3014 RMK A01 T01070009  RH  051%=      5-min Rain = 0
KPT1 171455Z 01014G19KT 11/01 A3014 RMK A01 T01090010  RH  051%=      5-min Rain = 0
KPT1 171500Z 01015G22KT 11/01 A3014 RMK A01 T01100010  RH  051%=      5-min Rain = 0
KPT1 171505Z 01016G22KT 11/01 A3014 RMK A01 T01120010  RH  050%=      5-min Rain = 0
KPT1 171510Z 01016G21KT 11/01 A3014 RMK A01 T01130010  RH  050%=      5-min Rain = 0
KPT1 171515Z 01016G22KT 12/01 A3014 RMK A01 T01160011  RH  049%=      5-min Rain = 0
KPT1 171520Z 01016G23KT 12/01 A3014 RMK A01 T01170011  RH  049%=      5-min Rain = 0
KPT1 171525Z 01016G24KT 12/01 A3015 RMK A01 T01170011  RH  049%=      5-min Rain = 0
KPT1 171530Z 01016G22KT 12/01 A3015 RMK A01 T01210012  RH  048%=      5-min Rain = 0
KPT1 171535Z 02017G22KT 12/01 A3015 RMK A01 T01220012  RH  048%=      5-min Rain = 0
KPT1 171540Z 02016G21KT 13/01 A3015 RMK A01 T01250012  RH  047%=      5-min Rain = 0
KPT1 171545Z 02019G26KT 13/01 A3015 RMK A01 T01250011  RH  046%=      5-min Rain = 0
KPT1 171550Z 01017G22KT 13/01 A3015 RMK A01 T01260011  RH  046%=      5-min Rain = 0
KPT1 171555Z 01016G24KT 13/01 A3015 RMK A01 T01280012  RH  046%=      5-min Rain = 0
KPT1 171600Z 01018G23KT 13/01 A3015 RMK A01 T01260010  RH  046%=      5-min Rain = 0
KPT1 171605Z 01018G23KT 13/01 A3016 RMK A01 T01260010  RH  046%=      5-min Rain = 0
KPT1 171610Z 01016G21KT 13/01 A3016 RMK A01 T01300011  RH  045%=      5-min Rain = 0
KPT1 171615Z 02017G24KT 13/01 A3015 RMK A01 T01320011  RH  044%=      5-min Rain = 0
KPT1 171620Z 02019G25KT 13/01 A3015 RMK A01 T01310010  RH  044%=      5-min Rain = 0
KPT1 171625Z 01015G22KT 13/01 A3015 RMK A01 T01320010  RH  044%=      5-min Rain = 0
KPT1 171630Z 02017G23KT 14/01 A3015 RMK A01 T01350010  RH  043%=      5-min Rain = 0
KPT1 171635Z 02015G20KT 14/01 A3015 RMK A01 T01380011  RH  043%=      5-min Rain = 0
KPT1 171640Z 02017KT 14/01 A3015 RMK A01 T01390009  RH  042%=      5-min Rain = 0
KPT1 171645Z 02015G20KT 14/01 A3015 RMK A01 T01420011  RH  041%=      5-min Rain = 0
KPT1 171650Z 02015G21KT 14/01 A3016 RMK A01 T01410010  RH  041%=      5-min Rain = 0
KPT1 171655Z 00015G21KT 14/01 A3016 RMK A01 T01410010  RH  042%=      5-min Rain = 0
KPT1 171700Z 01015KT 14/01 A3016 RMK A01 T01440011  RH  041%=      5-min Rain = 0
KPT1 171705Z 02016G21KT 14/01 A3015 RMK A01 T01420010  RH  041%=      5-min Rain = 0
KPT1 171710Z 02017KT 14/01 A3015 RMK A01 T01430010  RH  041%=      5-min Rain = 0
KPT1 171715Z 01016G22KT 15/01 A3015 RMK A01 T01450010  RH  040%=      5-min Rain = 0
KPT1 171720Z 02016G22KT 15/01 A3015 RMK A01 T01460010  RH  040%=      5-min Rain = 0
KPT1 171725Z 02015G20KT 15/01 A3015 RMK A01 T01460010  RH  040%=      5-min Rain = 0
KPT1 171730Z 02012G17KT 15/01 A3015 RMK A01 T01520012  RH  039%=      5-min Rain = 0
KPT1 171735Z 02014KT 15/01 A3015 RMK A01 T01520011  RH  039%=      5-min Rain = 0
KPT1 171740Z 02014G19KT 15/01 A3014 RMK A01 T01490010  RH  039%=      5-min Rain = 0
KPT1 171745Z 01013KT 15/01 A3014 RMK A01 T01500010  RH  039%=      5-min Rain = 0
KPT1 171750Z 02012G17KT 15/01 A3014 RMK A01 T01520011  RH  039%=      5-min Rain = 0
KPT1 171755Z 01012KT 15/01 A3014 RMK A01 T01540011  RH  038%=      5-min Rain = 0
KPT1 171800Z 01012KT 15/01 A3014 RMK A01 T01520011  RH  039%=      5-min Rain = 0
KPT1 171805Z 02009G15KT 16/01 A3014 RMK A01 T01570012  RH  038%=      5-min Rain = 0
KPT1 171810Z 01010KT 16/01 A3014 RMK A01 T01590011  RH  037%=      5-min Rain = 0
KPT1 171815Z 01013KT 16/01 A3013 RMK A01 T01600010  RH  037%=      5-min Rain = 0
KPT1 171820Z 02010G15KT 16/01 A3013 RMK A01 T01590010  RH  037%=      5-min Rain = 0
KPT1 171825Z 01009G15KT 16/01 A3013 RMK A01 T01630011  RH  036%=      5-min Rain = 0
KPT1 171830Z 02010G15KT 16/01 A3013 RMK A01 T01620010  RH  036%=      5-min Rain = 0
KPT1 171835Z 36008KT 16/01 A3013 RMK A01 T01600010  RH  037%=      5-min Rain = 0
KPT1 171840Z 01010KT 16/01 A3012 RMK A01 T01630011  RH  036%=      5-min Rain = 0
KPT1 171845Z 35009G14KT 16/01 A3012 RMK A01 T01640011  RH  036%=      5-min Rain = 0
KPT1 171850Z 35010KT 17/01 A3012 RMK A01 T01650010  RH  036%=      5-min Rain = 0
KPT1 171855Z 01009G15KT 17/01 A3012 RMK A01 T01670010  RH  035%=      5-min Rain = 0
KPT1 171900Z 01010KT 17/01 A3011 RMK A01 T01670010  RH  035%=      5-min Rain = 0
KPT1 171905Z 00010KT 17/01 A3011 RMK A01 T01670009  RH  035%=      5-min Rain = 0
KPT1 171910Z 36010G17KT 17/01 A3011 RMK A01 T01680010  RH  035%=      5-min Rain = 0
KPT1 171915Z 02010KT 17/01 A3011 RMK A01 T01680010  RH  035%=      5-min Rain = 0
KPT1 171920Z 00010G16KT 17/01 A3011 RMK A01 T01690010  RH  035%=      5-min Rain = 0
KPT1 171925Z 01007KT 17/01 A3011 RMK A01 T01720011  RH  034%=      5-min Rain = 0
KPT1 171930Z 35011G16KT 17/01 A3011 RMK A01 T01740010  RH  034%=      5-min Rain = 0
KPT1 171935Z 01009KT 17/01 A3011 RMK A01 T01730010  RH  034%=      5-min Rain = 0
KPT1 171940Z 01009G16KT 18/01 A3011 RMK A01 T01760010  RH  033%=      5-min Rain = 0
KPT1 171945Z 35009KT 18/01 A3011 RMK A01 T01780011  RH  033%=      5-min Rain = 0
KPT1 171950Z 01008KT 18/01 A3011 RMK A01 T01780011  RH  033%=      5-min Rain = 0
KPT1 171955Z 02008KT 18/01 A3011 RMK A01 T01770010  RH  033%=      5-min Rain = 0
KPT1 172000Z 01010G16KT 18/01 A3011 RMK A01 T01770007  RH  032%=      5-min Rain = 0
KPT1 172005Z 35007KT 18/01 A3011 RMK A01 T01750008  RH  033%=      5-min Rain = 0
KPT1 172010Z 00010G16KT 18/01 A301 RMK A01 T01760009  RH  033%=      5-min Rain = 0
KPT1 172015Z 01010G15KT 18/01 A301 RMK A01 T01760008  RH  032%=      5-min Rain = 0
KPT1 172020Z 00009G14KT 18/01 A301 RMK A01 T01760008  RH  033%=      5-min Rain = 0
KPT1 172025Z 01012KT 18/01 A301 RMK A01 T01790008  RH  032%=      5-min Rain = 0
KPT1 172030Z 01010G15KT 18/01 A301 RMK A01 T01790008  RH  032%=      5-min Rain = 0
KPT1 172035Z 02006G11KT 18/01 A301 RMK A01 T01790008  RH  032%=      5-min Rain = 0
KPT1 172040Z 02009G14KT 18/01 A301 RMK A01 T01820006  RH  031%=      5-min Rain = 0
KPT1 172045Z 02008KT 18/01 A301 RMK A01 T01820006  RH  031%=      5-min Rain = 0
KPT1 172050Z 03004KT 18/01 A3009 RMK A01 T01820006  RH  031%=      5-min Rain = 0
KPT1 172055Z 02007KT 18/01 A3009 RMK A01 T01840007  RH  031%=      5-min Rain = 0
KPT1 172100Z 01007KT 18/01 A3008 RMK A01 T01840007  RH  031%=      5-min Rain = 0
KPT1 172105Z 02006KT 18/01 A3008 RMK A01 T01840006  RH  031%=      5-min Rain = 0
KPT1 172110Z 02007KT 19/01 A3008 RMK A01 T01870006  RH  030%=      5-min Rain = 0
KPT1 172115Z 03007KT 18/01 A3008 RMK A01 T01840005  RH  030%=      5-min Rain = 0
KPT1 172120Z 01006KT 18/01 A3008 RMK A01 T01840005  RH  030%=      5-min Rain = 0
KPT1 172125Z 01005KT 18/00 A3008 RMK A01 T01810004  RH  031%=      5-min Rain = 0
KPT1 172130Z 03007G12KT 18/00 A3008 RMK A01 T01830004  RH  030%=      5-min Rain = 0
KPT1 172135Z 04010KT 18/00 A3008 RMK A01 T01810004  RH  031%=      5-min Rain = 0
KPT1 172140Z 03006G11KT 18/00 A3008 RMK A01 T01790003  RH  031%=      5-min Rain = 0
KPT1 172145Z 04005KT 18/00 A3008 RMK A01 T01790004  RH  031%=      5-min Rain = 0
KPT1 172150Z 04008KT 18/00 A3008 RMK A01 T01800003  RH  031%=      5-min Rain = 0
KPT1 172155Z 04005KT 18/00 A3008 RMK A01 T01800002  RH  030%=      5-min Rain = 0
KPT1 172200Z 04005KT 18/00 A3008 RMK A01 T01800001  RH  030%=      5-min Rain = 0
KPT1 172205Z 03006KT 18/00 A3007 RMK A01 T01820004  RH  030%=      5-min Rain = 0
KPT1 172210Z 06005KT 18/00 A3007 RMK A01 T01780003  RH  031%=      5-min Rain = 0
KPT1 172215Z 02006KT 18/00 A3007 RMK A01 T01790004  RH  031%=      5-min Rain = 0
KPT1 172220Z 01005KT 18/00 A3007 RMK A01 T01760003  RH  031%=      5-min Rain = 0
KPT1 172225Z 00005KT 18/00 A3007 RMK A01 T01770003  RH  031%=      5-min Rain = 0
KPT1 172230Z 01006KT 18/00 A3007 RMK A01 T01760003  RH  031%=      5-min Rain = 0
KPT1 172235Z 02004KT 18/00 A3008 RMK A01 T01750002  RH  031%=      5-min Rain = 0
KPT1 172240Z 02006KT 17/00 A3008 RMK A01 T01730001  RH  032%=      5-min Rain = 0
KPT1 172245Z 02006KT 17/00 A3007 RMK A01 T01720002  RH  032%=      5-min Rain = 0
KPT1 172250Z 02006KT 17/00 A3007 RMK A01 T01710002  RH  032%=      5-min Rain = 0
KPT1 172255Z 01004KT 17/00 A3007 RMK A01 T01700002  RH  032%=      5-min Rain = 0
KPT1 172300Z 03004KT 17/00 A3007 RMK A01 T01690002  RH  033%=      5-min Rain = 0
KPT1 172305Z 03005KT 17/00 A3007 RMK A01 T01670004  RH  034%=      5-min Rain = 0
KPT1 172310Z 02005KT 17/00 A3008 RMK A01 T01650004  RH  034%=      5-min Rain = 0
KPT1 172315Z 02004KT 16/00 A3008 RMK A01 T01610004  RH  035%=      5-min Rain = 0
KPT1 172320Z 03003KT 16/01 A3008 RMK A01 T01580005  RH  036%=      5-min Rain = 0
KPT1 172325Z 02003KT 16/01 A3008 RMK A01 T01550005  RH  036%=      5-min Rain = 0
KPT1 172330Z 02003KT 15/01 A3008 RMK A01 T01530006  RH  037%=      5-min Rain = 0
KPT1 172335Z 02003KT 15/01 A3008 RMK A01 T01520005  RH  037%=      5-min Rain = 0
KPT1 172340Z 02004KT 15/00 A3008 RMK A01 T01490004  RH  038%=      5-min Rain = 0
KPT1 172345Z 01004KT 15/00 A3008 RMK A01 T01460003  RH  038%=      5-min Rain = 0
KPT1 172350Z 01004KT 14/00 A3008 RMK A01 T01430004  RH  039%=      5-min Rain = 0
KPT1 172355Z 01004KT 14/01 A3008 RMK A01 T01390005  RH  040%=      5-min Rain = 0
KPT1 180000Z 35004KT 13/01 A3008 RMK A01 T01330006  RH  042%=      5-min Rain = 0
KPT1 180005Z 35004KT 13/01 A3009 RMK A01 T01290008  RH  044%=      5-min Rain = 0
KPT1 180010Z 33003KT 13/01 A3009 RMK A01 T01270009  RH  045%=      5-min Rain = 0
KPT1 180015Z 32003KT 12/01 A3009 RMK A01 T01240008  RH  046%=      5-min Rain = 0
KPT1 180020Z 34003KT 13/01 A3009 RMK A01 T01270007  RH  045%=      5-min Rain = 0
KPT1 180025Z 31003KT 12/01 A3009 RMK A01 T01230008  RH  046%=      5-min Rain = 0
KPT1 180030Z 32003KT 12/01 A3009 RMK A01 T01210009  RH  047%=      5-min Rain = 0
KPT1 180035Z 32003KT 12/01 A301 RMK A01 T01240008  RH  046%=      5-min Rain = 0
KPT1 180040Z 31002KT 13/01 A301 RMK A01 T01250008  RH  045%=      5-min Rain = 0
KPT1 180045Z 29002KT 13/01 A301 RMK A01 T01260009  RH  046%=      5-min Rain = 0
KPT1 180050Z 29002KT 12/01 A301 RMK A01 T01240010  RH  046%=      5-min Rain = 0
KPT1 180055Z 30002KT 12/01 A301 RMK A01 T01240011  RH  047%=      5-min Rain = 0
KPT1 180100Z 29003KT 12/01 A301 RMK A01 T01210012  RH  048%=      5-min Rain = 0
KPT1 180105Z 29003KT 12/01 A301 RMK A01 T01190013  RH  049%=      5-min Rain = 0
KPT1 180110Z 28002KT 12/01 A301 RMK A01 T01170014  RH  050%=      5-min Rain = 0
KPT1 180115Z 28002KT 12/01 A301 RMK A01 T01170013  RH  050%=      5-min Rain = 0
KPT1 180120Z 29003KT 12/01 A301 RMK A01 T01150012  RH  050%=      5-min Rain = 0
KPT1 180125Z 28003KT 11/01 A301 RMK A01 T01120014  RH  052%=      5-min Rain = 0
KPT1 180130Z 28003KT 11/02 A3011 RMK A01 T01050015  RH  054%=      5-min Rain = 0
KPT1 180135Z 29003KT 11/02 A3011 RMK A01 T01050015  RH  054%=      5-min Rain = 0
KPT1 180140Z 29003KT 11/01 A3011 RMK A01 T01050014  RH  054%=      5-min Rain = 0
KPT1 180145Z 29003KT 10/01 A3011 RMK A01 T01030014  RH  055%=      5-min Rain = 0
KPT1 180150Z 30002KT 10/01 A3011 RMK A01 T01030013  RH  054%=      5-min Rain = 0
KPT1 180155Z 30003KT 10/01 A3011 RMK A01 T01010013  RH  055%=      5-min Rain = 0
KPT1 180200Z 31003KT 10/01 A3011 RMK A01 T01010013  RH  055%=      5-min Rain = 0
KPT1 180205Z 32004KT 10/01 A3011 RMK A01 T01010014  RH  055%=      5-min Rain = 0
KPT1 180210Z 33004KT 10/01 A301 RMK A01 T00970013  RH  057%=      5-min Rain = 0
KPT1 180215Z 33005KT 09/01 A301 RMK A01 T00900013  RH  059%=      5-min Rain = 0
KPT1 180220Z 32006KT 09/01 A3011 RMK A01 T00870012  RH  060%=      5-min Rain = 0
KPT1 180225Z 31005KT 09/01 A3011 RMK A01 T00870012  RH  060%=      5-min Rain = 0
KPT1 180230Z 30003KT 09/01 A3011 RMK A01 T00940011  RH  057%=      5-min Rain = 0
KPT1 180235Z 29003KT 10/01 A3011 RMK A01 T00990011  RH  055%=      5-min Rain = 0
KPT1 180240Z 28003KT 11/01 A3011 RMK A01 T01050010  RH  053%=      5-min Rain = 0
KPT1 180245Z 28003KT 10/01 A3011 RMK A01 T01040011  RH  053%=      5-min Rain = 0
KPT1 180250Z 27003KT 10/01 A3011 RMK A01 T01010011  RH  054%=      5-min Rain = 0
KPT1 180255Z 28002KT 10/01 A3011 RMK A01 T00950012  RH  057%=      5-min Rain = 0
KPT1 180300Z 30002KT 09/01 A3011 RMK A01 T00940012  RH  057%=      5-min Rain = 0
KPT1 180305Z 30002KT 09/01 A3011 RMK A01 T00930012  RH  058%=      5-min Rain = 0
KPT1 180310Z 33002KT 10/01 A3011 RMK A01 T00960012  RH  057%=      5-min Rain = 0
KPT1 180315Z 34003KT 10/01 A3011 RMK A01 T01000012  RH  055%=      5-min Rain = 0
KPT1 180320Z 36004KT 09/01 A3011 RMK A01 T00930012  RH  057%=      5-min Rain = 0
KPT1 180325Z 36003KT 10/01 A3011 RMK A01 T00970011  RH  056%=      5-min Rain = 0
KPT1 180330Z 32000KT 09/01 A3011 RMK A01 T00870012  RH  060%=      5-min Rain = 0
KPT1 180335Z 22001KT 08/01 A3011 RMK A01 T00840014  RH  062%=      5-min Rain = 0
KPT1 180340Z 21002KT 09/01 A3011 RMK A01 T00850014  RH  062%=      5-min Rain = 0
KPT1 180345Z 19002KT 09/01 A3011 RMK A01 T00860014  RH  061%=      5-min Rain = 0
KPT1 180350Z 19003KT 09/01 A301 RMK A01 T00860014  RH  061%=      5-min Rain = 0
KPT1 180355Z 20004KT 08/01 A301 RMK A01 T00830013  RH  062%=      5-min Rain = 0
KPT1 180400Z 20005KT 09/01 A301 RMK A01 T00860013  RH  061%=      5-min Rain = 0
KPT1 180405Z 20005KT 09/01 A301 RMK A01 T00860012  RH  060%=      5-min Rain = 0
KPT1 180410Z 21004KT 09/01 A301 RMK A01 T00890011  RH  059%=      5-min Rain = 0
KPT1 180415Z 21004KT 09/01 A301 RMK A01 T00920010  RH  057%=      5-min Rain = 0
KPT1 180420Z 21004KT 09/01 A301 RMK A01 T00900010  RH  058%=      5-min Rain = 0
KPT1 180425Z 21003KT 09/01 A301 RMK A01 T00870011  RH  060%=      5-min Rain = 0
KPT1 180430Z 21003KT 09/01 A301 RMK A01 T00870010  RH  059%=      5-min Rain = 0
KPT1 180435Z 21003KT 09/01 A301 RMK A01 T00850010  RH  060%=      5-min Rain = 0
KPT1 180440Z 21004KT 08/01 A301 RMK A01 T00830011  RH  062%=      5-min Rain = 0
KPT1 180445Z 21004KT 08/01 A301 RMK A01 T00810011  RH  062%=      5-min Rain = 0
KPT1 180450Z 22004KT 08/01 A301 RMK A01 T00810011  RH  062%=      5-min Rain = 0
KPT1 180455Z 22004KT 09/01 A301 RMK A01 T00850011  RH  060%=      5-min Rain = 0
KPT1 180500Z 23005KT 09/01 A301 RMK A01 T00850010  RH  060%=      5-min Rain = 0
KPT1 180505Z 23005KT 08/01 A3009 RMK A01 T00800011  RH  062%=      5-min Rain = 0
KPT1 180510Z 23004KT 08/01 A3009 RMK A01 T00780011  RH  063%=      5-min Rain = 0
KPT1 180515Z 24005KT 08/01 A3009 RMK A01 T00750010  RH  065%=      5-min Rain = 0
KPT1 180520Z 24006KT 07/01 A3009 RMK A01 T00700012  RH  067%=      5-min Rain = 0
KPT1 180525Z 24006KT 07/01 A3009 RMK A01 T00670014  RH  069%=      5-min Rain = 0
KPT1 180530Z 24006KT 07/02 A3009 RMK A01 T00710017  RH  070%=      5-min Rain = 0
KPT1 180535Z 23006KT 07/02 A3009 RMK A01 T00730016  RH  068%=      5-min Rain = 0
KPT1 180540Z 23005KT 08/02 A3009 RMK A01 T00770015  RH  066%=      5-min Rain = 0
KPT1 180545Z 23005KT 08/01 A3009 RMK A01 T00760014  RH  066%=      5-min Rain = 0
KPT1 180550Z 24005KT 08/01 A3009 RMK A01 T00760014  RH  066%=      5-min Rain = 0
KPT1 180555Z 24005KT 07/01 A3008 RMK A01 T00730014  RH  067%=      5-min Rain = 0

Page generated in 0.009 seconds.